sensor_id;sensor_type;location;lat;lon;timestamp;P1;durP1;ratioP1;P2;durP2;ratioP2
25854;SDS011;13680;49.936;11.344;2023-05-21T00:00:18;12.80;;;9.20;;
25854;SDS011;13680;49.936;11.344;2023-05-21T00:02:44;13.23;;;9.20;;
25854;SDS011;13680;49.936;11.344;2023-05-21T00:05:10;15.32;;;9.93;;
25854;SDS011;13680;49.936;11.344;2023-05-21T00:07:37;17.27;;;9.85;;
25854;SDS011;13680;49.936;11.344;2023-05-21T00:10:03;13.52;;;9.55;;
25854;SDS011;13680;49.936;11.344;2023-05-21T00:12:28;15.55;;;9.88;;
25854;SDS011;13680;49.936;11.344;2023-05-21T00:14:53;15.35;;;10.00;;
25854;SDS011;13680;49.936;11.344;2023-05-21T00:17:19;13.75;;;10.38;;
25854;SDS011;13680;49.936;11.344;2023-05-21T00:19:45;14.57;;;10.13;;
25854;SDS011;13680;49.936;11.344;2023-05-21T00:22:10;14.23;;;10.05;;
25854;SDS011;13680;49.936;11.344;2023-05-21T00:24:36;13.88;;;9.80;;
25854;SDS011;13680;49.936;11.344;2023-05-21T00:27:01;17.75;;;9.77;;
25854;SDS011;13680;49.936;11.344;2023-05-21T00:29:26;13.35;;;9.98;;
25854;SDS011;13680;49.936;11.344;2023-05-21T00:31:54;15.43;;;10.20;;
25854;SDS011;13680;49.936;11.344;2023-05-21T00:34:20;19.05;;;10.77;;
25854;SDS011;13680;49.936;11.344;2023-05-21T00:36:45;13.85;;;10.40;;
25854;SDS011;13680;49.936;11.344;2023-05-21T00:39:11;18.25;;;10.10;;
25854;SDS011;13680;49.936;11.344;2023-05-21T00:41:37;14.95;;;9.70;;
25854;SDS011;13680;49.936;11.344;2023-05-21T00:44:07;17.15;;;10.18;;
25854;SDS011;13680;49.936;11.344;2023-05-21T00:46:33;12.45;;;9.88;;
25854;SDS011;13680;49.936;11.344;2023-05-21T00:48:59;15.95;;;10.70;;
25854;SDS011;13680;49.936;11.344;2023-05-21T00:51:24;14.70;;;10.35;;
25854;SDS011;13680;49.936;11.344;2023-05-21T00:53:54;14.73;;;10.15;;
25854;SDS011;13680;49.936;11.344;2023-05-21T00:56:20;12.98;;;10.15;;
25854;SDS011;13680;49.936;11.344;2023-05-21T00:58:47;14.85;;;10.68;;
25854;SDS011;13680;49.936;11.344;2023-05-21T01:01:16;16.33;;;10.05;;
25854;SDS011;13680;49.936;11.344;2023-05-21T01:03:42;15.57;;;10.80;;
25854;SDS011;13680;49.936;11.344;2023-05-21T01:06:09;14.80;;;10.02;;
25854;SDS011;13680;49.936;11.344;2023-05-21T01:08:35;18.10;;;10.23;;
25854;SDS011;13680;49.936;11.344;2023-05-21T01:11:02;18.38;;;10.73;;
25854;SDS011;13680;49.936;11.344;2023-05-21T01:13:29;16.58;;;10.05;;
25854;SDS011;13680;49.936;11.344;2023-05-21T01:15:56;14.93;;;10.23;;
25854;SDS011;13680;49.936;11.344;2023-05-21T01:18:23;17.20;;;11.15;;
25854;SDS011;13680;49.936;11.344;2023-05-21T01:20:49;19.95;;;11.60;;
25854;SDS011;13680;49.936;11.344;2023-05-21T01:23:16;18.25;;;10.85;;
25854;SDS011;13680;49.936;11.344;2023-05-21T01:25:42;15.15;;;11.20;;
25854;SDS011;13680;49.936;11.344;2023-05-21T01:28:07;16.15;;;11.23;;
25854;SDS011;13680;49.936;11.344;2023-05-21T01:30:33;17.83;;;11.13;;
25854;SDS011;13680;49.936;11.344;2023-05-21T01:33:01;17.15;;;11.32;;
25854;SDS011;13680;49.936;11.344;2023-05-21T01:35:35;17.23;;;10.93;;
25854;SDS011;13680;49.936;11.344;2023-05-21T01:40:50;18.48;;;11.15;;
25854;SDS011;13680;49.936;11.344;2023-05-21T01:43:18;15.85;;;11.23;;
25854;SDS011;13680;49.936;11.344;2023-05-21T01:45:46;17.35;;;11.35;;
25854;SDS011;13680;49.936;11.344;2023-05-21T01:48:11;18.50;;;11.10;;
25854;SDS011;13680;49.936;11.344;2023-05-21T01:50:37;17.33;;;11.98;;
25854;SDS011;13680;49.936;11.344;2023-05-21T01:53:04;14.55;;;11.25;;
25854;SDS011;13680;49.936;11.344;2023-05-21T01:55:30;17.02;;;11.50;;
25854;SDS011;13680;49.936;11.344;2023-05-21T01:57:56;14.80;;;11.38;;
25854;SDS011;13680;49.936;11.344;2023-05-21T02:00:24;16.08;;;11.20;;
25854;SDS011;13680;49.936;11.344;2023-05-21T02:02:52;18.08;;;11.40;;
25854;SDS011;13680;49.936;11.344;2023-05-21T02:05:18;14.95;;;11.23;;
25854;SDS011;13680;49.936;11.344;2023-05-21T02:07:44;15.40;;;12.02;;
25854;SDS011;13680;49.936;11.344;2023-05-21T02:10:10;15.93;;;10.93;;
25854;SDS011;13680;49.936;11.344;2023-05-21T02:12:36;18.55;;;12.13;;
25854;SDS011;13680;49.936;11.344;2023-05-21T02:15:01;17.13;;;11.40;;
25854;SDS011;13680;49.936;11.344;2023-05-21T02:17:27;14.85;;;11.18;;
25854;SDS011;13680;49.936;11.344;2023-05-21T02:19:57;20.02;;;12.68;;
25854;SDS011;13680;49.936;11.344;2023-05-21T02:22:31;18.33;;;11.88;;
25854;SDS011;13680;49.936;11.344;2023-05-21T02:24:56;20.77;;;12.15;;
25854;SDS011;13680;49.936;11.344;2023-05-21T02:27:21;18.60;;;13.07;;
25854;SDS011;13680;49.936;11.344;2023-05-21T02:29:47;16.67;;;11.10;;
25854;SDS011;13680;49.936;11.344;2023-05-21T02:32:13;16.35;;;12.02;;
25854;SDS011;13680;49.936;11.344;2023-05-21T02:34:38;17.73;;;12.43;;
25854;SDS011;13680;49.936;11.344;2023-05-21T02:37:06;20.38;;;12.88;;
25854;SDS011;13680;49.936;11.344;2023-05-21T02:39:33;18.05;;;12.57;;
25854;SDS011;13680;49.936;11.344;2023-05-21T02:41:58;18.52;;;11.90;;
25854;SDS011;13680;49.936;11.344;2023-05-21T02:44:24;16.10;;;12.00;;
25854;SDS011;13680;49.936;11.344;2023-05-21T02:46:49;16.27;;;11.90;;
25854;SDS011;13680;49.936;11.344;2023-05-21T02:49:15;17.25;;;11.82;;
25854;SDS011;13680;49.936;11.344;2023-05-21T02:51:40;17.00;;;12.45;;
25854;SDS011;13680;49.936;11.344;2023-05-21T02:54:05;16.60;;;12.32;;
25854;SDS011;13680;49.936;11.344;2023-05-21T02:56:31;17.15;;;12.52;;
25854;SDS011;13680;49.936;11.344;2023-05-21T02:58:56;15.85;;;11.73;;
25854;SDS011;13680;49.936;11.344;2023-05-21T03:01:21;15.75;;;12.18;;
25854;SDS011;13680;49.936;11.344;2023-05-21T03:03:47;17.17;;;12.65;;
25854;SDS011;13680;49.936;11.344;2023-05-21T03:06:12;19.23;;;12.30;;
25854;SDS011;13680;49.936;11.344;2023-05-21T03:08:38;15.32;;;12.23;;
25854;SDS011;13680;49.936;11.344;2023-05-21T03:11:03;19.35;;;12.48;;
25854;SDS011;13680;49.936;11.344;2023-05-21T03:13:28;17.75;;;13.02;;
25854;SDS011;13680;49.936;11.344;2023-05-21T03:15:54;18.10;;;12.25;;
25854;SDS011;13680;49.936;11.344;2023-05-21T03:18:20;16.80;;;12.27;;
25854;SDS011;13680;49.936;11.344;2023-05-21T03:20:46;18.67;;;12.73;;
25854;SDS011;13680;49.936;11.344;2023-05-21T03:23:12;20.30;;;12.77;;
25854;SDS011;13680;49.936;11.344;2023-05-21T03:25:38;17.45;;;12.25;;
25854;SDS011;13680;49.936;11.344;2023-05-21T03:28:03;15.48;;;12.02;;
25854;SDS011;13680;49.936;11.344;2023-05-21T03:30:30;17.20;;;12.40;;
25854;SDS011;13680;49.936;11.344;2023-05-21T03:32:56;16.08;;;11.55;;
25854;SDS011;13680;49.936;11.344;2023-05-21T03:35:22;17.15;;;12.52;;
25854;SDS011;13680;49.936;11.344;2023-05-21T03:37:47;21.42;;;12.57;;
25854;SDS011;13680;49.936;11.344;2023-05-21T03:40:12;18.05;;;12.55;;
25854;SDS011;13680;49.936;11.344;2023-05-21T03:42:38;16.33;;;11.75;;
25854;SDS011;13680;49.936;11.344;2023-05-21T03:45:03;14.82;;;11.60;;
25854;SDS011;13680;49.936;11.344;2023-05-21T03:47:30;17.05;;;12.30;;
25854;SDS011;13680;49.936;11.344;2023-05-21T03:49:56;18.63;;;12.48;;
25854;SDS011;13680;49.936;11.344;2023-05-21T03:52:21;18.10;;;12.57;;
25854;SDS011;13680;49.936;11.344;2023-05-21T03:54:47;18.55;;;12.02;;
25854;SDS011;13680;49.936;11.344;2023-05-21T03:57:12;16.30;;;12.13;;
25854;SDS011;13680;49.936;11.344;2023-05-21T03:59:37;18.88;;;11.90;;
25854;SDS011;13680;49.936;11.344;2023-05-21T04:02:03;17.40;;;11.60;;
25854;SDS011;13680;49.936;11.344;2023-05-21T04:04:29;16.20;;;11.80;;
25854;SDS011;13680;49.936;11.344;2023-05-21T04:06:54;16.63;;;12.60;;
25854;SDS011;13680;49.936;11.344;2023-05-21T04:09:20;15.48;;;11.75;;
25854;SDS011;13680;49.936;11.344;2023-05-21T04:11:45;15.20;;;12.27;;
25854;SDS011;13680;49.936;11.344;2023-05-21T04:14:11;16.40;;;11.80;;
25854;SDS011;13680;49.936;11.344;2023-05-21T04:16:36;15.65;;;11.43;;
25854;SDS011;13680;49.936;11.344;2023-05-21T04:19:02;17.63;;;12.07;;
25854;SDS011;13680;49.936;11.344;2023-05-21T04:21:28;15.52;;;11.85;;
25854;SDS011;13680;49.936;11.344;2023-05-21T04:23:54;15.02;;;12.60;;
25854;SDS011;13680;49.936;11.344;2023-05-21T04:26:21;17.60;;;12.95;;
25854;SDS011;13680;49.936;11.344;2023-05-21T04:28:47;17.48;;;12.05;;
25854;SDS011;13680;49.936;11.344;2023-05-21T04:31:13;20.35;;;13.20;;
25854;SDS011;13680;49.936;11.344;2023-05-21T04:33:38;16.52;;;11.90;;
25854;SDS011;13680;49.936;11.344;2023-05-21T04:36:06;16.55;;;11.88;;
25854;SDS011;13680;49.936;11.344;2023-05-21T04:38:34;21.33;;;12.05;;
25854;SDS011;13680;49.936;11.344;2023-05-21T04:41:01;20.38;;;12.60;;
25854;SDS011;13680;49.936;11.344;2023-05-21T04:43:27;23.10;;;12.63;;
25854;SDS011;13680;49.936;11.344;2023-05-21T04:45:53;19.05;;;12.63;;
25854;SDS011;13680;49.936;11.344;2023-05-21T04:48:19;18.65;;;12.18;;
25854;SDS011;13680;49.936;11.344;2023-05-21T04:50:44;18.60;;;12.10;;
25854;SDS011;13680;49.936;11.344;2023-05-21T04:53:10;17.80;;;12.40;;
25854;SDS011;13680;49.936;11.344;2023-05-21T04:55:36;16.50;;;11.90;;
25854;SDS011;13680;49.936;11.344;2023-05-21T04:58:06;17.67;;;12.30;;
25854;SDS011;13680;49.936;11.344;2023-05-21T05:00:32;17.55;;;12.18;;
25854;SDS011;13680;49.936;11.344;2023-05-21T05:02:58;21.55;;;12.73;;
25854;SDS011;13680;49.936;11.344;2023-05-21T05:05:24;18.77;;;12.70;;
25854;SDS011;13680;49.936;11.344;2023-05-21T05:07:49;17.52;;;12.82;;
25854;SDS011;13680;49.936;11.344;2023-05-21T05:10:15;16.17;;;11.82;;
25854;SDS011;13680;49.936;11.344;2023-05-21T05:12:40;17.45;;;11.73;;
25854;SDS011;13680;49.936;11.344;2023-05-21T05:15:06;20.65;;;12.35;;
25854;SDS011;13680;49.936;11.344;2023-05-21T05:17:31;20.30;;;12.25;;
25854;SDS011;13680;49.936;11.344;2023-05-21T05:19:58;19.35;;;12.88;;
25854;SDS011;13680;49.936;11.344;2023-05-21T05:22:23;18.65;;;12.77;;
25854;SDS011;13680;49.936;11.344;2023-05-21T05:24:49;19.25;;;12.27;;
25854;SDS011;13680;49.936;11.344;2023-05-21T05:27:14;17.77;;;11.55;;
25854;SDS011;13680;49.936;11.344;2023-05-21T05:29:40;18.73;;;12.30;;
25854;SDS011;13680;49.936;11.344;2023-05-21T05:32:05;17.27;;;11.57;;
25854;SDS011;13680;49.936;11.344;2023-05-21T05:34:31;15.10;;;11.13;;
25854;SDS011;13680;49.936;11.344;2023-05-21T05:36:56;18.00;;;12.93;;
25854;SDS011;13680;49.936;11.344;2023-05-21T05:39:22;18.70;;;12.43;;
25854;SDS011;13680;49.936;11.344;2023-05-21T05:41:48;19.90;;;13.05;;
25854;SDS011;13680;49.936;11.344;2023-05-21T05:44:13;18.17;;;12.35;;
25854;SDS011;13680;49.936;11.344;2023-05-21T05:46:38;16.23;;;12.18;;
25854;SDS011;13680;49.936;11.344;2023-05-21T05:49:04;15.52;;;11.55;;
25854;SDS011;13680;49.936;11.344;2023-05-21T05:51:30;19.30;;;12.68;;
25854;SDS011;13680;49.936;11.344;2023-05-21T05:53:55;15.05;;;11.60;;
25854;SDS011;13680;49.936;11.344;2023-05-21T05:56:21;18.05;;;12.13;;
25854;SDS011;13680;49.936;11.344;2023-05-21T05:58:46;16.77;;;11.80;;
25854;SDS011;13680;49.936;11.344;2023-05-21T06:01:11;17.45;;;12.25;;
25854;SDS011;13680;49.936;11.344;2023-05-21T06:03:37;15.57;;;12.05;;
25854;SDS011;13680;49.936;11.344;2023-05-21T06:06:02;18.30;;;12.27;;
25854;SDS011;13680;49.936;11.344;2023-05-21T06:08:28;16.60;;;12.60;;
25854;SDS011;13680;49.936;11.344;2023-05-21T06:10:53;20.10;;;13.05;;
25854;SDS011;13680;49.936;11.344;2023-05-21T06:13:18;16.88;;;12.48;;
25854;SDS011;13680;49.936;11.344;2023-05-21T06:15:44;18.40;;;11.90;;
25854;SDS011;13680;49.936;11.344;2023-05-21T06:18:09;18.55;;;11.95;;
25854;SDS011;13680;49.936;11.344;2023-05-21T06:20:35;17.00;;;12.32;;
25854;SDS011;13680;49.936;11.344;2023-05-21T06:23:01;15.75;;;11.82;;
25854;SDS011;13680;49.936;11.344;2023-05-21T06:25:26;16.70;;;11.95;;
25854;SDS011;13680;49.936;11.344;2023-05-21T06:27:51;17.25;;;12.57;;
25854;SDS011;13680;49.936;11.344;2023-05-21T06:30:17;15.65;;;11.30;;
25854;SDS011;13680;49.936;11.344;2023-05-21T06:32:42;16.45;;;11.98;;
25854;SDS011;13680;49.936;11.344;2023-05-21T06:35:08;15.38;;;11.75;;
25854;SDS011;13680;49.936;11.344;2023-05-21T06:37:33;18.88;;;12.18;;
25854;SDS011;13680;49.936;11.344;2023-05-21T06:39:59;19.90;;;12.07;;
25854;SDS011;13680;49.936;11.344;2023-05-21T06:42:24;16.35;;;12.15;;
25854;SDS011;13680;49.936;11.344;2023-05-21T06:44:50;15.25;;;11.52;;
25854;SDS011;13680;49.936;11.344;2023-05-21T06:47:15;16.92;;;11.55;;
25854;SDS011;13680;49.936;11.344;2023-05-21T06:49:40;19.33;;;11.90;;
25854;SDS011;13680;49.936;11.344;2023-05-21T06:52:06;15.88;;;12.25;;
25854;SDS011;13680;49.936;11.344;2023-05-21T06:54:31;14.02;;;11.15;;
25854;SDS011;13680;49.936;11.344;2023-05-21T06:56:57;17.73;;;11.75;;
25854;SDS011;13680;49.936;11.344;2023-05-21T06:59:22;20.20;;;12.32;;
25854;SDS011;13680;49.936;11.344;2023-05-21T07:01:47;18.48;;;12.18;;
25854;SDS011;13680;49.936;11.344;2023-05-21T07:04:13;18.27;;;11.68;;
25854;SDS011;13680;49.936;11.344;2023-05-21T07:06:38;14.90;;;11.63;;
25854;SDS011;13680;49.936;11.344;2023-05-21T07:09:04;14.63;;;11.90;;
25854;SDS011;13680;49.936;11.344;2023-05-21T07:11:30;26.42;;;12.10;;
25854;SDS011;13680;49.936;11.344;2023-05-21T07:13:57;17.17;;;11.75;;
25854;SDS011;13680;49.936;11.344;2023-05-21T07:16:24;17.42;;;11.18;;
25854;SDS011;13680;49.936;11.344;2023-05-21T07:18:49;15.65;;;11.13;;
25854;SDS011;13680;49.936;11.344;2023-05-21T07:21:15;18.73;;;11.63;;
25854;SDS011;13680;49.936;11.344;2023-05-21T07:23:40;16.80;;;11.55;;
25854;SDS011;13680;49.936;11.344;2023-05-21T07:26:07;20.10;;;11.68;;
25854;SDS011;13680;49.936;11.344;2023-05-21T07:28:33;18.23;;;11.88;;
25854;SDS011;13680;49.936;11.344;2023-05-21T07:30:59;16.60;;;11.70;;
25854;SDS011;13680;49.936;11.344;2023-05-21T07:33:24;13.60;;;10.52;;
25854;SDS011;13680;49.936;11.344;2023-05-21T07:35:49;15.80;;;11.48;;
25854;SDS011;13680;49.936;11.344;2023-05-21T07:38:15;14.50;;;10.95;;
25854;SDS011;13680;49.936;11.344;2023-05-21T07:40:41;16.52;;;10.55;;
25854;SDS011;13680;49.936;11.344;2023-05-21T07:43:07;15.48;;;11.38;;
25854;SDS011;13680;49.936;11.344;2023-05-21T07:45:32;15.93;;;11.30;;
25854;SDS011;13680;49.936;11.344;2023-05-21T07:47:57;18.65;;;10.98;;
25854;SDS011;13680;49.936;11.344;2023-05-21T07:50:23;17.38;;;11.70;;
25854;SDS011;13680;49.936;11.344;2023-05-21T07:52:49;13.82;;;11.00;;
25854;SDS011;13680;49.936;11.344;2023-05-21T07:55:14;16.95;;;11.02;;
25854;SDS011;13680;49.936;11.344;2023-05-21T07:57:39;17.10;;;10.93;;
25854;SDS011;13680;49.936;11.344;2023-05-21T08:00:05;14.43;;;10.70;;
25854;SDS011;13680;49.936;11.344;2023-05-21T08:02:33;16.90;;;11.05;;
25854;SDS011;13680;49.936;11.344;2023-05-21T08:04:59;15.32;;;10.00;;
25854;SDS011;13680;49.936;11.344;2023-05-21T08:07:25;14.45;;;10.55;;
25854;SDS011;13680;49.936;11.344;2023-05-21T08:09:52;13.93;;;10.77;;
25854;SDS011;13680;49.936;11.344;2023-05-21T08:12:18;13.40;;;10.65;;
25854;SDS011;13680;49.936;11.344;2023-05-21T08:14:44;14.82;;;10.50;;
25854;SDS011;13680;49.936;11.344;2023-05-21T08:17:09;16.73;;;10.27;;
25854;SDS011;13680;49.936;11.344;2023-05-21T08:19:35;15.55;;;10.70;;
25854;SDS011;13680;49.936;11.344;2023-05-21T08:22:01;11.75;;;9.32;;
25854;SDS011;13680;49.936;11.344;2023-05-21T08:24:26;18.00;;;9.77;;
25854;SDS011;13680;49.936;11.344;2023-05-21T08:26:51;12.60;;;9.30;;
25854;SDS011;13680;49.936;11.344;2023-05-21T08:29:16;20.08;;;10.52;;
25854;SDS011;13680;49.936;11.344;2023-05-21T08:31:42;15.63;;;10.25;;
25854;SDS011;13680;49.936;11.344;2023-05-21T08:34:07;14.63;;;9.82;;
25854;SDS011;13680;49.936;11.344;2023-05-21T08:36:32;13.02;;;9.80;;
25854;SDS011;13680;49.936;11.344;2023-05-21T08:38:58;13.52;;;9.57;;
25854;SDS011;13680;49.936;11.344;2023-05-21T08:41:23;13.45;;;9.63;;
25854;SDS011;13680;49.936;11.344;2023-05-21T08:43:52;12.48;;;9.77;;
25854;SDS011;13680;49.936;11.344;2023-05-21T08:46:20;14.68;;;10.55;;
25854;SDS011;13680;49.936;11.344;2023-05-21T08:48:48;12.77;;;9.95;;
25854;SDS011;13680;49.936;11.344;2023-05-21T08:51:16;14.70;;;10.30;;
25854;SDS011;13680;49.936;11.344;2023-05-21T08:53:41;14.15;;;10.10;;
25854;SDS011;13680;49.936;11.344;2023-05-21T08:56:08;14.43;;;9.77;;
25854;SDS011;13680;49.936;11.344;2023-05-21T08:58:37;12.45;;;10.10;;
25854;SDS011;13680;49.936;11.344;2023-05-21T09:01:06;10.35;;;8.77;;
25854;SDS011;13680;49.936;11.344;2023-05-21T09:03:33;12.18;;;9.80;;
25854;SDS011;13680;49.936;11.344;2023-05-21T09:06:03;11.38;;;9.38;;
25854;SDS011;13680;49.936;11.344;2023-05-21T09:08:30;13.38;;;9.55;;
25854;SDS011;13680;49.936;11.344;2023-05-21T09:11:00;15.68;;;9.77;;
25854;SDS011;13680;49.936;11.344;2023-05-21T09:13:27;14.13;;;9.35;;
25854;SDS011;13680;49.936;11.344;2023-05-21T09:15:54;12.30;;;9.60;;
25854;SDS011;13680;49.936;11.344;2023-05-21T09:18:19;12.32;;;9.23;;
25854;SDS011;13680;49.936;11.344;2023-05-21T09:20:45;13.80;;;9.80;;
25854;SDS011;13680;49.936;11.344;2023-05-21T09:23:10;15.25;;;9.27;;
25854;SDS011;13680;49.936;11.344;2023-05-21T09:25:40;10.90;;;9.05;;
25854;SDS011;13680;49.936;11.344;2023-05-21T09:28:12;12.18;;;9.02;;
25854;SDS011;13680;49.936;11.344;2023-05-21T09:30:48;13.32;;;8.95;;
25854;SDS011;13680;49.936;11.344;2023-05-21T09:33:24;12.13;;;9.07;;
25854;SDS011;13680;49.936;11.344;2023-05-21T09:35:51;14.13;;;9.10;;
25854;SDS011;13680;49.936;11.344;2023-05-21T09:38:16;16.90;;;9.70;;
25854;SDS011;13680;49.936;11.344;2023-05-21T09:40:44;15.20;;;9.10;;
25854;SDS011;13680;49.936;11.344;2023-05-21T09:43:15;11.93;;;9.13;;
25854;SDS011;13680;49.936;11.344;2023-05-21T09:45:49;10.40;;;8.70;;
25854;SDS011;13680;49.936;11.344;2023-05-21T09:48:33;13.57;;;8.95;;
25854;SDS011;13680;49.936;11.344;2023-05-21T09:51:09;10.35;;;8.45;;
25854;SDS011;13680;49.936;11.344;2023-05-21T09:53:41;13.98;;;8.43;;
25854;SDS011;13680;49.936;11.344;2023-05-21T09:56:21;13.10;;;8.85;;
25854;SDS011;13680;49.936;11.344;2023-05-21T09:58:52;11.90;;;8.85;;
25854;SDS011;13680;49.936;11.344;2023-05-21T10:01:19;16.73;;;8.93;;
25854;SDS011;13680;49.936;11.344;2023-05-21T10:03:45;15.80;;;8.75;;
25854;SDS011;13680;49.936;11.344;2023-05-21T10:06:14;9.88;;;8.32;;
25854;SDS011;13680;49.936;11.344;2023-05-21T10:08:43;13.70;;;8.65;;
25854;SDS011;13680;49.936;11.344;2023-05-21T10:11:10;11.30;;;8.30;;
25854;SDS011;13680;49.936;11.344;2023-05-21T10:13:39;10.63;;;8.38;;
25854;SDS011;13680;49.936;11.344;2023-05-21T10:16:08;11.73;;;7.68;;
25854;SDS011;13680;49.936;11.344;2023-05-21T10:18:34;15.52;;;8.75;;
25854;SDS011;13680;49.936;11.344;2023-05-21T10:21:03;12.65;;;8.15;;
25854;SDS011;13680;49.936;11.344;2023-05-21T10:23:31;13.45;;;8.57;;
25854;SDS011;13680;49.936;11.344;2023-05-21T10:25:58;10.65;;;8.60;;
25854;SDS011;13680;49.936;11.344;2023-05-21T10:28:24;11.43;;;8.55;;
25854;SDS011;13680;49.936;11.344;2023-05-21T10:30:49;13.13;;;8.00;;
25854;SDS011;13680;49.936;11.344;2023-05-21T10:33:16;10.40;;;7.80;;
25854;SDS011;13680;49.936;11.344;2023-05-21T10:35:41;14.40;;;8.40;;
25854;SDS011;13680;49.936;11.344;2023-05-21T10:38:10;15.30;;;8.43;;
25854;SDS011;13680;49.936;11.344;2023-05-21T10:40:38;9.73;;;8.13;;
25854;SDS011;13680;49.936;11.344;2023-05-21T10:43:07;14.77;;;7.93;;
25854;SDS011;13680;49.936;11.344;2023-05-21T10:46:04;10.55;;;7.88;;
25854;SDS011;13680;49.936;11.344;2023-05-21T10:54:26;11.45;;;7.75;;
25854;SDS011;13680;49.936;11.344;2023-05-21T10:59:51;11.23;;;8.27;;
25854;SDS011;13680;49.936;11.344;2023-05-21T11:02:17;14.73;;;8.60;;
25854;SDS011;13680;49.936;11.344;2023-05-21T11:04:44;10.50;;;8.15;;
25854;SDS011;13680;49.936;11.344;2023-05-21T11:07:11;8.93;;;7.47;;
25854;SDS011;13680;49.936;11.344;2023-05-21T11:09:36;10.52;;;7.93;;
25854;SDS011;13680;49.936;11.344;2023-05-21T11:12:02;15.82;;;7.97;;
25854;SDS011;13680;49.936;11.344;2023-05-21T11:14:29;10.93;;;7.93;;
25854;SDS011;13680;49.936;11.344;2023-05-21T11:17:12;14.18;;;8.25;;
25854;SDS011;13680;49.936;11.344;2023-05-21T11:22:06;8.85;;;7.35;;
25854;SDS011;13680;49.936;11.344;2023-05-21T11:24:48;14.35;;;8.00;;
25854;SDS011;13680;49.936;11.344;2023-05-21T11:29:54;10.98;;;7.88;;
25854;SDS011;13680;49.936;11.344;2023-05-21T11:32:19;9.27;;;7.45;;
25854;SDS011;13680;49.936;11.344;2023-05-21T11:34:46;12.07;;;7.05;;
25854;SDS011;13680;49.936;11.344;2023-05-21T11:39:40;9.30;;;7.30;;
25854;SDS011;13680;49.936;11.344;2023-05-21T11:42:07;10.73;;;7.30;;
25854;SDS011;13680;49.936;11.344;2023-05-21T11:44:46;16.05;;;7.57;;
25854;SDS011;13680;49.936;11.344;2023-05-21T11:47:15;9.63;;;7.32;;
25854;SDS011;13680;49.936;11.344;2023-05-21T11:49:42;12.50;;;7.10;;
25854;SDS011;13680;49.936;11.344;2023-05-21T11:52:08;12.00;;;7.25;;
25854;SDS011;13680;49.936;11.344;2023-05-21T11:54:42;11.18;;;7.43;;
25854;SDS011;13680;49.936;11.344;2023-05-21T11:57:19;11.10;;;7.65;;
25854;SDS011;13680;49.936;11.344;2023-05-21T11:59:45;9.50;;;6.50;;
25854;SDS011;13680;49.936;11.344;2023-05-21T12:02:14;8.25;;;6.47;;
25854;SDS011;13680;49.936;11.344;2023-05-21T12:04:41;7.80;;;6.88;;
25854;SDS011;13680;49.936;11.344;2023-05-21T12:07:07;10.52;;;7.32;;
25854;SDS011;13680;49.936;11.344;2023-05-21T12:09:38;9.95;;;7.13;;
25854;SDS011;13680;49.936;11.344;2023-05-21T12:12:04;10.35;;;7.13;;
25854;SDS011;13680;49.936;11.344;2023-05-21T12:14:32;10.02;;;7.38;;
25854;SDS011;13680;49.936;11.344;2023-05-21T12:16:58;13.00;;;6.82;;
25854;SDS011;13680;49.936;11.344;2023-05-21T12:19:23;8.15;;;6.22;;
25854;SDS011;13680;49.936;11.344;2023-05-21T12:21:49;8.82;;;6.63;;
25854;SDS011;13680;49.936;11.344;2023-05-21T12:24:14;12.07;;;7.45;;
25854;SDS011;13680;49.936;11.344;2023-05-21T12:26:40;17.02;;;6.72;;
25854;SDS011;13680;49.936;11.344;2023-05-21T12:29:08;10.18;;;6.30;;
25854;SDS011;13680;49.936;11.344;2023-05-21T12:31:39;8.48;;;6.38;;
25854;SDS011;13680;49.936;11.344;2023-05-21T12:34:12;8.27;;;6.68;;
25854;SDS011;13680;49.936;11.344;2023-05-21T12:36:37;11.88;;;6.45;;
25854;SDS011;13680;49.936;11.344;2023-05-21T12:39:02;8.00;;;5.85;;
25854;SDS011;13680;49.936;11.344;2023-05-21T12:41:28;8.57;;;6.18;;
25854;SDS011;13680;49.936;11.344;2023-05-21T12:43:53;8.10;;;6.65;;
25854;SDS011;13680;49.936;11.344;2023-05-21T12:46:19;9.20;;;5.88;;
25854;SDS011;13680;49.936;11.344;2023-05-21T12:48:48;6.95;;;5.63;;
25854;SDS011;13680;49.936;11.344;2023-05-21T12:51:17;8.60;;;5.93;;
25854;SDS011;13680;49.936;11.344;2023-05-21T12:53:44;9.93;;;5.65;;
25854;SDS011;13680;49.936;11.344;2023-05-21T12:56:09;10.90;;;5.82;;
25854;SDS011;13680;49.936;11.344;2023-05-21T12:58:35;11.77;;;6.00;;
25854;SDS011;13680;49.936;11.344;2023-05-21T13:01:04;10.15;;;5.78;;
25854;SDS011;13680;49.936;11.344;2023-05-21T13:03:31;10.07;;;6.00;;
25854;SDS011;13680;49.936;11.344;2023-05-21T13:05:57;9.55;;;6.68;;
25854;SDS011;13680;49.936;11.344;2023-05-21T13:08:26;11.15;;;6.75;;
25854;SDS011;13680;49.936;11.344;2023-05-21T13:10:52;9.27;;;5.50;;
25854;SDS011;13680;49.936;11.344;2023-05-21T13:13:17;8.90;;;5.60;;
25854;SDS011;13680;49.936;11.344;2023-05-21T13:15:43;9.52;;;6.18;;
25854;SDS011;13680;49.936;11.344;2023-05-21T13:18:08;9.90;;;6.55;;
25854;SDS011;13680;49.936;11.344;2023-05-21T13:20:34;13.60;;;6.10;;
25854;SDS011;13680;49.936;11.344;2023-05-21T13:23:00;8.85;;;6.45;;
25854;SDS011;13680;49.936;11.344;2023-05-21T13:25:27;8.07;;;6.07;;
25854;SDS011;13680;49.936;11.344;2023-05-21T13:27:52;10.80;;;5.97;;
25854;SDS011;13680;49.936;11.344;2023-05-21T13:30:19;10.93;;;6.25;;
25854;SDS011;13680;49.936;11.344;2023-05-21T13:32:45;10.77;;;5.90;;
25854;SDS011;13680;49.936;11.344;2023-05-21T13:35:11;10.90;;;5.97;;
25854;SDS011;13680;49.936;11.344;2023-05-21T13:37:39;14.65;;;6.45;;
25854;SDS011;13680;49.936;11.344;2023-05-21T13:40:06;11.35;;;6.75;;
25854;SDS011;13680;49.936;11.344;2023-05-21T13:42:36;11.10;;;5.70;;
25854;SDS011;13680;49.936;11.344;2023-05-21T13:45:05;7.45;;;6.30;;
25854;SDS011;13680;49.936;11.344;2023-05-21T13:47:32;9.10;;;6.40;;
25854;SDS011;13680;49.936;11.344;2023-05-21T13:49:58;9.18;;;6.38;;
25854;SDS011;13680;49.936;11.344;2023-05-21T13:52:23;11.23;;;5.82;;
25854;SDS011;13680;49.936;11.344;2023-05-21T13:54:49;10.18;;;6.10;;
25854;SDS011;13680;49.936;11.344;2023-05-21T13:57:14;10.02;;;6.57;;
25854;SDS011;13680;49.936;11.344;2023-05-21T13:59:40;9.32;;;6.10;;
25854;SDS011;13680;49.936;11.344;2023-05-21T14:02:06;9.32;;;6.38;;
25854;SDS011;13680;49.936;11.344;2023-05-21T14:04:33;9.05;;;6.00;;
25854;SDS011;13680;49.936;11.344;2023-05-21T14:06:59;10.13;;;6.30;;
25854;SDS011;13680;49.936;11.344;2023-05-21T14:09:25;12.55;;;7.25;;
25854;SDS011;13680;49.936;11.344;2023-05-21T14:11:51;9.30;;;6.10;;
25854;SDS011;13680;49.936;11.344;2023-05-21T14:14:17;11.07;;;6.90;;
25854;SDS011;13680;49.936;11.344;2023-05-21T14:16:45;10.35;;;5.97;;
25854;SDS011;13680;49.936;11.344;2023-05-21T14:19:11;10.52;;;6.70;;
25854;SDS011;13680;49.936;11.344;2023-05-21T14:21:36;12.07;;;6.57;;
25854;SDS011;13680;49.936;11.344;2023-05-21T14:24:02;11.48;;;6.55;;
25854;SDS011;13680;49.936;11.344;2023-05-21T14:26:27;11.68;;;6.15;;
25854;SDS011;13680;49.936;11.344;2023-05-21T14:28:53;10.15;;;6.55;;
25854;SDS011;13680;49.936;11.344;2023-05-21T14:31:19;9.57;;;6.45;;